Time;durP1;ratioP1;P1;durP2;ratioP2;P2;SDS_P1;SDS_P2;PMS_P1;PMS_P2;Temp;Humidity;BMP_temperature;BMP_pressure;BME280_temperature;BME280_humidity;BME280_pressure;Samples;Min_cycle;Max_cycle;Signal;HPM_P1;HPM_P2
2023/05/09 00:02:02;;;;;;;46.55;25.35;;;15.10;99.90;;;;;;4994726;28;20302;-81
2023/05/09 00:04:28;;;;;;;55.90;28.17;;;15.10;99.90;;;;;;4998914;28;20547;-82
2023/05/09 00:06:53;;;;;;;48.28;26.38;;;15.10;99.90;;;;;;4998303;28;20075;-80
2023/05/09 00:09:19;;;;;;;44.30;25.92;;;15.10;99.90;;;;;;4996657;28;20050;-81
2023/05/09 00:11:45;;;;;;;47.72;25.67;;;15.00;99.90;;;;;;4999902;28;20376;-81
2023/05/09 00:14:13;;;;;;;43.28;25.48;;;15.00;99.90;;;;;;4995211;28;20061;-81
2023/05/09 00:16:39;;;;;;;40.83;23.95;;;15.00;99.90;;;;;;4997002;28;20467;-81
2023/05/09 00:19:05;;;;;;;46.13;25.98;;;15.00;99.90;;;;;;5002144;28;20080;-81
2023/05/09 00:21:32;;;;;;;42.55;25.48;;;15.00;99.90;;;;;;5002790;28;20041;-80
2023/05/09 00:23:59;;;;;;;42.85;24.45;;;15.00;99.90;;;;;;4985918;28;20040;-81
2023/05/09 00:26:26;;;;;;;44.28;24.40;;;15.00;99.90;;;;;;5000984;28;20081;-82
2023/05/09 00:28:51;;;;;;;45.83;25.95;;;15.00;99.90;;;;;;5000664;28;20046;-81
2023/05/09 00:31:17;;;;;;;44.38;24.00;;;15.00;99.90;;;;;;4987928;28;20050;-82
2023/05/09 00:33:43;;;;;;;49.50;25.95;;;14.90;99.90;;;;;;5005299;28;20762;-84
2023/05/09 00:36:09;;;;;;;45.75;23.95;;;14.90;99.90;;;;;;4997686;28;20415;-81
2023/05/09 00:38:35;;;;;;;45.75;25.15;;;14.90;99.90;;;;;;4999021;28;20038;-82
2023/05/09 00:41:00;;;;;;;48.05;25.92;;;14.90;99.90;;;;;;4996914;28;20101;-82
2023/05/09 00:43:26;;;;;;;47.28;25.63;;;14.90;99.90;;;;;;4983748;28;20069;-81
2023/05/09 00:45:52;;;;;;;42.45;23.60;;;14.90;99.90;;;;;;4996368;28;20088;-81
2023/05/09 00:48:18;;;;;;;42.00;23.83;;;14.90;99.90;;;;;;4983485;28;20432;-81
2023/05/09 00:50:44;;;;;;;46.33;25.27;;;14.90;99.90;;;;;;4986594;28;20045;-82
2023/05/09 00:53:10;;;;;;;42.45;24.52;;;14.90;99.90;;;;;;4987424;28;20053;-81
2023/05/09 00:55:36;;;;;;;44.28;25.10;;;14.90;99.90;;;;;;4998410;28;20045;-78
2023/05/09 00:58:04;;;;;;;52.45;27.38;;;14.80;99.90;;;;;;5000775;28;20341;-74
2023/05/09 01:00:31;;;;;;;47.53;26.13;;;14.80;99.90;;;;;;5000552;28;20042;-75
2023/05/09 01:02:57;;;;;;;49.00;25.52;;;14.80;99.90;;;;;;4999776;28;20115;-77
2023/05/09 01:05:29;;;;;;;50.22;26.17;;;14.80;99.90;;;;;;4985340;28;20423;-77
2023/05/09 01:08:15;;;;;;;46.92;26.65;;;14.80;99.90;;;;;;5002677;28;20056;-77
2023/05/09 01:10:57;;;;;;;48.33;25.92;;;14.80;99.90;;;;;;5003701;28;20088;-77
2023/05/09 01:13:34;;;;;;;47.20;26.58;;;14.80;99.90;;;;;;4996786;28;20415;-77
2023/05/09 01:16:30;;;;;;;48.40;25.88;;;14.80;99.90;;;;;;5004487;28;20034;-76
2023/05/09 01:19:34;;;;;;;44.50;24.70;;;14.80;99.90;;;;;;5004828;28;20052;-77
2023/05/09 01:22:03;;;;;;;43.60;24.98;;;14.80;99.90;;;;;;4994767;28;20087;-77
2023/05/09 01:25:00;;;;;;;45.13;25.15;;;14.70;99.90;;;;;;5001556;28;20057;-77
2023/05/09 01:27:49;;;;;;;47.75;25.52;;;14.70;99.90;;;;;;4985870;28;20057;-78
2023/05/09 01:30:16;;;;;;;49.92;26.98;;;14.70;99.90;;;;;;4982163;28;20062;-78
2023/05/09 01:32:50;;;;;;;43.40;25.27;;;14.70;99.90;;;;;;5001470;28;20061;-77
2023/05/09 01:35:16;;;;;;;47.25;26.48;;;14.70;99.90;;;;;;5000545;28;20877;-78
2023/05/09 01:37:47;;;;;;;47.40;26.25;;;14.70;99.90;;;;;;4999216;28;20128;-77
2023/05/09 01:40:15;;;;;;;49.15;27.17;;;14.70;99.90;;;;;;5001516;28;20069;-77
2023/05/09 01:43:00;;;;;;;47.38;26.42;;;14.70;99.90;;;;;;4997072;28;20069;-77
2023/05/09 01:45:27;;;;;;;50.60;26.40;;;14.70;99.90;;;;;;5003855;28;20050;-79
2023/05/09 01:47:56;;;;;;;46.25;26.45;;;14.70;99.90;;;;;;4983205;28;20052;-78
2023/05/09 01:50:22;;;;;;;44.30;24.63;;;14.70;99.90;;;;;;5001101;28;20056;-78
2023/05/09 01:52:52;;;;;;;50.22;27.08;;;14.70;99.90;;;;;;5004800;28;20039;-78
2023/05/09 01:55:20;;;;;;;45.10;25.88;;;14.70;99.90;;;;;;5003714;28;20056;-79
2023/05/09 01:57:46;;;;;;;46.38;25.23;;;14.70;99.90;;;;;;4981739;28;20046;-78
2023/05/09 02:00:13;;;;;;;40.58;23.58;;;14.70;99.90;;;;;;4982149;28;20097;-78
2023/05/09 02:02:40;;;;;;;47.28;26.23;;;14.70;99.90;;;;;;5001889;28;20402;-78
2023/05/09 02:05:09;;;;;;;45.40;26.23;;;14.70;99.90;;;;;;5001147;28;20058;-78
2023/05/09 02:07:36;;;;;;;42.38;24.48;;;14.70;99.90;;;;;;4998491;28;20447;-78
2023/05/09 02:10:03;;;;;;;45.85;26.52;;;14.70;99.90;;;;;;4981774;28;20052;-78
2023/05/09 02:12:29;;;;;;;47.42;25.20;;;14.70;99.90;;;;;;5001479;28;20038;-78
2023/05/09 02:14:55;;;;;;;44.55;25.73;;;14.70;99.90;;;;;;5000444;28;20088;-77
2023/05/09 02:17:21;;;;;;;48.83;26.00;;;14.70;99.90;;;;;;4998079;28;20049;-77
2023/05/09 02:19:46;;;;;;;50.85;27.30;;;14.70;99.90;;;;;;5001848;28;20085;-78
2023/05/09 02:22:13;;;;;;;46.17;26.95;;;14.70;99.90;;;;;;4996371;28;20050;-77
2023/05/09 02:24:40;;;;;;;56.25;28.80;;;14.70;99.90;;;;;;4999656;28;20034;-77
2023/05/09 02:27:06;;;;;;;54.28;28.17;;;14.70;99.90;;;;;;4983045;28;20041;-78
2023/05/09 02:29:40;;;;;;;46.72;26.95;;;14.70;99.90;;;;;;4980153;28;20041;-77
2023/05/09 02:32:15;;;;;;;49.30;26.50;;;14.70;99.90;;;;;;4998089;28;20042;-78
2023/05/09 02:34:44;;;;;;;48.70;27.50;;;14.70;99.90;;;;;;4982070;28;20069;-78
2023/05/09 02:37:12;;;;;;;50.20;27.08;;;14.60;99.90;;;;;;4999506;28;20038;-80
2023/05/09 02:39:38;;;;;;;46.70;26.05;;;14.70;99.90;;;;;;5000487;28;20610;-77
2023/05/09 02:42:12;;;;;;;49.40;26.95;;;14.70;99.90;;;;;;4984261;28;20057;-79
2023/05/09 02:44:38;;;;;;;46.90;25.48;;;14.60;99.90;;;;;;5020694;28;20571;-78
2023/05/09 02:47:06;;;;;;;49.05;25.00;;;14.60;99.90;;;;;;4999674;28;20042;-78
2023/05/09 02:49:32;;;;;;;54.17;29.92;;;14.60;99.90;;;;;;4999615;28;20041;-78
2023/05/09 02:51:58;;;;;;;55.75;29.05;;;14.60;99.90;;;;;;4999652;28;20103;-77
2023/05/09 02:54:24;;;;;;;46.47;27.75;;;14.60;99.90;;;;;;4979453;28;20657;-78
2023/05/09 02:56:59;;;;;;;47.17;26.88;;;14.60;99.90;;;;;;4980764;28;20053;-77
2023/05/09 02:59:25;;;;;;;47.97;25.60;;;14.60;99.90;;;;;;4982825;28;20042;-76
2023/05/09 03:01:51;;;;;;;53.95;28.75;;;14.60;99.90;;;;;;4981752;28;20399;-78
2023/05/09 03:04:17;;;;;;;45.33;26.50;;;14.60;99.90;;;;;;4997466;28;20053;-77
2023/05/09 03:06:43;;;;;;;44.03;25.27;;;14.60;99.90;;;;;;4996599;28;20073;-77
2023/05/09 03:09:08;;;;;;;46.47;25.10;;;14.50;99.90;;;;;;4999723;28;20155;-78
2023/05/09 03:11:37;;;;;;;45.25;24.67;;;14.60;99.90;;;;;;4999291;28;20077;-77
2023/05/09 03:14:03;;;;;;;45.10;26.40;;;14.50;99.90;;;;;;4995368;28;20119;-77
2023/05/09 03:16:30;;;;;;;41.35;24.17;;;14.50;99.90;;;;;;5018720;28;20511;-76
2023/05/09 03:18:56;;;;;;;41.00;24.45;;;14.50;99.90;;;;;;5001404;28;20053;-76
2023/05/09 03:21:21;;;;;;;47.28;25.38;;;14.50;99.90;;;;;;4999072;28;20042;-76
2023/05/09 03:23:47;;;;;;;43.42;25.38;;;14.50;99.90;;;;;;4998141;28;20045;-77
2023/05/09 03:26:13;;;;;;;48.33;27.65;;;14.50;99.90;;;;;;4983576;28;20053;-78
2023/05/09 03:28:39;;;;;;;51.17;28.95;;;14.50;99.90;;;;;;5001916;28;20503;-76
2023/05/09 03:31:05;;;;;;;45.35;26.30;;;14.40;99.90;;;;;;4998809;28;20046;-77
2023/05/09 03:33:30;;;;;;;47.78;27.20;;;14.50;99.90;;;;;;5000135;28;20442;-77
2023/05/09 03:35:56;;;;;;;46.47;25.88;;;14.40;99.90;;;;;;4982137;28;20054;-77
2023/05/09 03:38:24;;;;;;;52.22;28.98;;;14.40;99.90;;;;;;4993475;28;20554;-77
2023/05/09 03:40:52;;;;;;;46.28;26.63;;;14.50;99.90;;;;;;5001639;28;20455;-78
2023/05/09 03:43:18;;;;;;;49.45;27.42;;;14.50;99.90;;;;;;4999033;28;20112;-74
2023/05/09 03:45:44;;;;;;;46.13;27.77;;;14.40;99.90;;;;;;4997315;28;20051;-79
2023/05/09 03:48:10;;;;;;;46.53;26.83;;;14.40;99.90;;;;;;4984642;28;20057;-77
2023/05/09 03:50:36;;;;;;;46.28;26.35;;;14.40;99.90;;;;;;4994519;28;20399;-78
2023/05/09 03:53:05;;;;;;;42.30;25.88;;;14.40;99.90;;;;;;5002807;28;20164;-77
2023/05/09 03:55:31;;;;;;;44.53;26.00;;;14.40;99.90;;;;;;4999842;28;20038;-77
2023/05/09 03:57:56;;;;;;;44.17;25.75;;;14.40;99.90;;;;;;4993573;28;20053;-78
2023/05/09 04:00:22;;;;;;;52.50;29.45;;;14.40;99.90;;;;;;4993831;28;20066;-77
2023/05/09 04:02:48;;;;;;;47.40;27.20;;;14.40;99.90;;;;;;5000199;28;20724;-78
2023/05/09 04:05:15;;;;;;;48.38;27.65;;;14.40;99.90;;;;;;4998619;28;20057;-77
2023/05/09 04:07:41;;;;;;;49.17;28.05;;;14.40;99.90;;;;;;4981532;28;20069;-76
2023/05/09 04:10:08;;;;;;;58.95;30.85;;;14.40;99.90;;;;;;4997270;28;20068;-76
2023/05/09 04:12:34;;;;;;;51.53;27.50;;;14.40;99.90;;;;;;4993784;28;20415;-77
2023/05/09 04:15:00;;;;;;;53.63;28.83;;;14.30;99.90;;;;;;5003823;28;20048;-77
2023/05/09 04:17:28;;;;;;;43.13;26.23;;;14.30;99.90;;;;;;5001231;28;20057;-76
2023/05/09 04:19:57;;;;;;;66.75;30.65;;;14.30;99.90;;;;;;4988366;28;20103;-77
2023/05/09 04:22:25;;;;;;;66.63;32.63;;;14.30;99.90;;;;;;5002847;28;20123;-77
2023/05/09 04:24:51;;;;;;;93.03;35.33;;;14.30;99.90;;;;;;5003689;28;20077;-76
2023/05/09 04:27:17;;;;;;;112.38;36.08;;;14.30;99.90;;;;;;5002788;28;20088;-76
2023/05/09 04:29:43;;;;;;;132.95;37.50;;;14.20;99.90;;;;;;5004172;28;20120;-76
2023/05/09 04:32:08;;;;;;;126.70;36.55;;;14.20;99.90;;;;;;5005291;28;20049;-76
2023/05/09 04:34:34;;;;;;;69.13;35.70;;;14.30;99.90;;;;;;5006435;28;20054;-76
2023/05/09 04:37:00;;;;;;;91.10;35.70;;;14.20;99.90;;;;;;4984275;28;20512;-77
2023/05/09 04:39:26;;;;;;;98.75;36.58;;;14.20;99.90;;;;;;4995240;28;20101;-77
2023/05/09 04:41:52;;;;;;;99.78;36.53;;;14.20;99.90;;;;;;4994839;28;20038;-77
2023/05/09 04:44:17;;;;;;;84.57;36.67;;;14.20;99.90;;;;;;4987834;28;20054;-77
2023/05/09 04:46:43;;;;;;;92.53;38.47;;;14.20;99.90;;;;;;4969820;28;20539;-77
2023/05/09 04:49:09;;;;;;;77.82;37.20;;;14.20;99.90;;;;;;4985724;28;20530;-77
2023/05/09 04:51:35;;;;;;;69.18;37.58;;;14.20;99.90;;;;;;4973322;28;20184;-77
2023/05/09 04:54:01;;;;;;;68.05;37.20;;;14.20;99.90;;;;;;4999547;28;20498;-77
2023/05/09 04:56:27;;;;;;;76.15;39.28;;;14.20;99.90;;;;;;4993292;28;20042;-77
2023/05/09 04:58:53;;;;;;;79.18;40.42;;;14.30;99.90;;;;;;4991973;28;20054;-76
2023/05/09 05:01:18;;;;;;;81.80;41.05;;;14.30;99.90;;;;;;4978464;28;20048;-76
2023/05/09 05:03:45;;;;;;;87.43;43.58;;;14.30;99.90;;;;;;5005624;28;20042;-76
2023/05/09 05:06:10;;;;;;;91.00;43.15;;;14.30;99.90;;;;;;5002524;28;20084;-77
2023/05/09 05:08:36;;;;;;;86.85;44.95;;;14.40;99.90;;;;;;4980096;28;20604;-76
2023/05/09 05:11:02;;;;;;;92.88;45.63;;;14.40;99.90;;;;;;5001907;28;20511;-76
2023/05/09 05:13:28;;;;;;;99.47;48.58;;;14.40;99.90;;;;;;5003555;28;20487;-78
2023/05/09 05:15:55;;;;;;;95.10;46.78;;;14.40;99.90;;;;;;5004914;28;20034;-77
2023/05/09 05:18:21;;;;;;;104.68;47.67;;;14.40;99.90;;;;;;4993886;28;20053;-76
2023/05/09 05:20:47;;;;;;;100.88;48.50;;;14.40;99.90;;;;;;4993198;28;20042;-76
2023/05/09 05:23:12;;;;;;;90.88;45.80;;;14.50;99.90;;;;;;4974133;28;20667;-76
2023/05/09 05:25:38;;;;;;;95.30;45.75;;;14.50;99.90;;;;;;4985729;28;20066;-77
2023/05/09 05:28:04;;;;;;;96.40;46.92;;;14.50;99.90;;;;;;4988008;28;20046;-77
2023/05/09 05:30:30;;;;;;;97.57;48.13;;;14.50;99.90;;;;;;4991054;28;20494;-77
2023/05/09 05:33:00;;;;;;;96.97;46.28;;;14.50;99.90;;;;;;4978005;28;20057;-78
2023/05/09 05:35:28;;;;;;;101.93;51.10;;;14.60;99.90;;;;;;4968567;28;20042;-77
2023/05/09 05:37:53;;;;;;;90.35;46.20;;;14.60;99.90;;;;;;4988481;28;20151;-77
2023/05/09 05:40:20;;;;;;;90.20;47.17;;;14.60;99.90;;;;;;4989610;28;20133;-78
2023/05/09 05:42:45;;;;;;;91.47;46.78;;;14.60;99.90;;;;;;4992878;28;20037;-78
2023/05/09 05:45:11;;;;;;;101.18;49.30;;;14.70;99.90;;;;;;4996110;28;20111;-78
2023/05/09 05:47:37;;;;;;;104.97;50.95;;;14.60;99.90;;;;;;4993748;28;20042;-77
2023/05/09 05:50:07;;;;;;;104.47;50.90;;;14.70;99.90;;;;;;4983137;28;20049;-77
2023/05/09 05:52:32;;;;;;;107.78;50.83;;;14.70;99.90;;;;;;4993224;28;20057;-76
2023/05/09 05:54:58;;;;;;;99.13;50.00;;;14.70;99.90;;;;;;4993923;28;20057;-77
2023/05/09 05:57:24;;;;;;;103.90;51.53;;;14.70;99.90;;;;;;4993492;28;20454;-77
2023/05/09 05:59:50;;;;;;;100.13;51.47;;;14.70;99.90;;;;;;4996704;28;20125;-77
2023/05/09 06:02:17;;;;;;;104.28;52.80;;;14.70;99.90;;;;;;5000514;28;20044;-79
2023/05/09 06:04:43;;;;;;;102.13;50.65;;;14.80;99.90;;;;;;5001311;28;20136;-78
2023/05/09 06:07:09;;;;;;;102.80;51.33;;;14.80;99.90;;;;;;4998963;28;20133;-78
2023/05/09 06:09:35;;;;;;;99.88;51.63;;;14.80;99.90;;;;;;5012176;28;20064;-78
2023/05/09 06:12:01;;;;;;;108.93;53.25;;;14.90;99.90;;;;;;4998780;28;20510;-79
2023/05/09 06:14:27;;;;;;;102.65;52.72;;;14.90;99.90;;;;;;5001043;28;20081;-79
2023/05/09 06:16:53;;;;;;;112.05;55.65;;;14.90;99.90;;;;;;5000080;28;20520;-77
2023/05/09 06:19:18;;;;;;;100.75;51.75;;;14.90;99.90;;;;;;4981729;28;20133;-80
2023/05/09 06:21:44;;;;;;;104.60;52.65;;;15.00;99.90;;;;;;4980553;28;20130;-78
2023/05/09 06:24:10;;;;;;;110.43;53.05;;;15.00;99.90;;;;;;4993111;28;20053;-77
2023/05/09 06:26:36;;;;;;;109.22;52.63;;;15.10;99.90;;;;;;5002653;28;20781;-77
2023/05/09 06:29:04;;;;;;;109.38;53.63;;;15.10;99.90;;;;;;5000477;28;20052;-77
2023/05/09 06:31:30;;;;;;;118.40;56.75;;;15.10;99.90;;;;;;5000940;28;20050;-77
2023/05/09 06:33:56;;;;;;;112.05;57.67;;;15.10;99.90;;;;;;4983402;28;20057;-78
2023/05/09 06:36:22;;;;;;;111.00;58.15;;;15.20;99.90;;;;;;5000285;28;20381;-77
2023/05/09 06:38:47;;;;;;;108.82;56.85;;;15.20;99.90;;;;;;5002779;28;20122;-77
2023/05/09 06:41:13;;;;;;;112.47;56.20;;;15.30;99.90;;;;;;5000284;28;21540;-79
2023/05/09 06:43:39;;;;;;;117.97;55.47;;;15.30;99.90;;;;;;4997748;28;20121;-77
2023/05/09 06:46:05;;;;;;;107.55;55.33;;;15.30;99.90;;;;;;4981166;28;20574;-77
2023/05/09 06:48:30;;;;;;;107.40;56.00;;;15.30;99.90;;;;;;5002928;28;20376;-77
2023/05/09 06:50:56;;;;;;;98.32;52.45;;;15.40;99.90;;;;;;5001778;28;20057;-78
2023/05/09 06:53:22;;;;;;;107.82;55.72;;;15.30;99.90;;;;;;5001579;28;20077;-79
2023/05/09 06:55:48;;;;;;;114.68;54.78;;;15.40;99.90;;;;;;5002795;28;20073;-78
2023/05/09 06:58:14;;;;;;;105.10;54.78;;;15.40;99.90;;;;;;5002267;28;20053;-79
2023/05/09 07:00:39;;;;;;;112.80;58.50;;;15.40;99.90;;;;;;4986140;28;20129;-78
2023/05/09 07:03:07;;;;;;;109.95;56.28;;;15.40;99.90;;;;;;5001574;28;20042;-79
2023/05/09 07:05:37;;;;;;;104.55;56.05;;;15.50;99.90;;;;;;5001665;28;20080;-76
2023/05/09 07:08:05;;;;;;;104.72;57.47;;;15.40;99.90;;;;;;4985591;28;20116;-77
2023/05/09 07:10:31;;;;;;;112.00;59.08;;;15.50;99.90;;;;;;5003430;28;20045;-77
2023/05/09 07:12:57;;;;;;;113.65;58.55;;;15.50;99.90;;;;;;5004564;28;20085;-78
2023/05/09 07:15:23;;;;;;;101.72;53.90;;;15.50;99.90;;;;;;4985718;28;20085;-78
2023/05/09 07:17:49;;;;;;;111.07;56.33;;;15.60;99.90;;;;;;5002639;28;20058;-77
2023/05/09 07:20:14;;;;;;;105.63;54.38;;;15.60;99.90;;;;;;5001447;28;20046;-78
2023/05/09 07:22:40;;;;;;;102.60;54.40;;;15.60;99.90;;;;;;5002712;28;20038;-78
2023/05/09 07:25:07;;;;;;;106.53;57.38;;;15.70;99.90;;;;;;4986231;28;20046;-78
2023/05/09 07:27:33;;;;;;;100.57;54.13;;;15.70;99.90;;;;;;5002801;28;20052;-76
2023/05/09 07:29:59;;;;;;;104.63;56.08;;;15.70;99.90;;;;;;4986093;28;20057;-78
2023/05/09 07:32:27;;;;;;;107.70;53.33;;;15.80;99.90;;;;;;5000113;28;20705;-77
2023/05/09 07:34:53;;;;;;;110.32;55.28;;;15.80;99.90;;;;;;5003675;28;20458;-79
2023/05/09 07:37:19;;;;;;;100.18;52.83;;;15.80;99.90;;;;;;5002030;28;20049;-77
2023/05/09 07:39:46;;;;;;;98.93;53.42;;;15.90;99.90;;;;;;4984684;28;20049;-78
2023/05/09 07:42:12;;;;;;;92.03;52.50;;;15.90;99.90;;;;;;4984050;28;20046;-77
2023/05/09 07:44:38;;;;;;;94.75;51.58;;;15.90;99.90;;;;;;5001926;28;20053;-77
2023/05/09 07:47:04;;;;;;;92.25;48.47;;;15.90;99.90;;;;;;5000160;28;20511;-77
2023/05/09 07:49:31;;;;;;;89.50;48.83;;;16.00;99.90;;;;;;5000368;28;20061;-77
2023/05/09 07:51:56;;;;;;;89.18;49.17;;;15.90;99.90;;;;;;5001949;28;20510;-76
2023/05/09 07:54:22;;;;;;;85.40;46.17;;;15.90;99.90;;;;;;4985684;28;20050;-75
2023/05/09 07:56:48;;;;;;;89.88;49.17;;;15.90;99.90;;;;;;5002090;28;20108;-77
2023/05/09 07:59:14;;;;;;;90.28;48.33;;;15.90;99.90;;;;;;4982744;28;20455;-77
2023/05/09 08:01:40;;;;;;;85.65;46.22;;;15.90;99.90;;;;;;4998624;28;20396;-76
2023/05/09 08:04:07;;;;;;;83.55;46.67;;;15.90;99.90;;;;;;5000856;28;20096;-75
2023/05/09 08:06:34;;;;;;;92.40;45.85;;;15.90;99.90;;;;;;5000885;28;20055;-76
2023/05/09 08:09:03;;;;;;;82.45;45.60;;;15.90;99.90;;;;;;5000901;28;20100;-76
2023/05/09 08:11:31;;;;;;;76.45;43.42;;;15.90;99.90;;;;;;4985881;28;20505;-74
2023/05/09 08:13:57;;;;;;;73.38;42.38;;;15.90;99.90;;;;;;4984772;28;20868;-76
2023/05/09 08:16:23;;;;;;;79.30;42.53;;;15.90;99.90;;;;;;5000763;28;20057;-77
2023/05/09 08:18:49;;;;;;;76.32;41.10;;;15.90;99.90;;;;;;4999447;28;20088;-77
2023/05/09 08:21:14;;;;;;;70.18;40.92;;;15.90;99.90;;;;;;4985731;28;20056;-76
2023/05/09 08:23:40;;;;;;;71.88;40.45;;;15.90;99.90;;;;;;4998413;28;20096;-77
2023/05/09 08:26:06;;;;;;;68.75;39.88;;;15.90;99.90;;;;;;5000343;28;20049;-77
2023/05/09 08:28:34;;;;;;;74.90;40.22;;;15.80;99.90;;;;;;5000618;28;20184;-77
2023/05/09 08:31:00;;;;;;;70.57;40.15;;;15.80;99.90;;;;;;5002871;28;20054;-77
2023/05/09 08:33:26;;;;;;;65.88;38.80;;;15.90;99.90;;;;;;5002546;28;20499;-77
2023/05/09 08:35:53;;;;;;;69.95;39.25;;;15.90;99.90;;;;;;4999189;28;20136;-76
2023/05/09 08:38:19;;;;;;;69.05;37.70;;;15.90;99.90;;;;;;5000539;28;20037;-78
2023/05/09 08:40:44;;;;;;;67.70;39.03;;;15.90;99.90;;;;;;4985390;28;20113;-77
2023/05/09 08:43:11;;;;;;;72.10;41.47;;;15.90;99.90;;;;;;5002501;28;20168;-75
2023/05/09 08:46:02;;;;;;;72.40;40.83;;;15.90;99.90;;;;;;5003909;28;20612;-76
2023/05/09 08:48:29;;;;;;;72.45;42.00;;;15.90;99.90;;;;;;4998484;28;20053;-75
2023/05/09 08:50:55;;;;;;;68.85;39.22;;;15.90;99.90;;;;;;4984997;28;20046;-75
2023/05/09 08:53:21;;;;;;;77.07;42.55;;;16.00;99.90;;;;;;4984928;28;20049;-76
2023/05/09 08:55:49;;;;;;;70.65;40.58;;;16.00;99.90;;;;;;4983549;28;20045;-77
2023/05/09 08:58:18;;;;;;;71.88;40.72;;;16.00;99.90;;;;;;4999898;28;20054;-77
2023/05/09 09:00:45;;;;;;;73.05;40.65;;;16.00;99.90;;;;;;5001272;28;20145;-79
2023/05/09 09:03:11;;;;;;;72.95;40.88;;;16.00;99.90;;;;;;4999464;28;20184;-75
2023/05/09 09:05:41;;;;;;;72.85;41.13;;;16.10;99.90;;;;;;5000699;28;20050;-75
2023/05/09 09:08:08;;;;;;;78.87;43.90;;;16.10;99.90;;;;;;4999858;28;20053;-75
2023/05/09 09:10:34;;;;;;;77.05;42.63;;;16.20;99.90;;;;;;5000613;28;20355;-75
2023/05/09 09:13:03;;;;;;;74.13;42.67;;;16.20;99.90;;;;;;5002471;28;20061;-75
2023/05/09 09:15:34;;;;;;;72.90;41.28;;;16.30;99.90;;;;;;5004207;28;20443;-74
2023/05/09 09:18:05;;;;;;;69.67;37.57;;;16.30;99.90;;;;;;5000500;28;20054;-75
2023/05/09 09:20:32;;;;;;;69.00;40.60;;;16.20;99.90;;;;;;5005021;28;20049;-74
2023/05/09 09:23:03;;;;;;;70.88;39.97;;;16.40;99.90;;;;;;5005459;28;20068;-74
2023/05/09 09:25:29;;;;;;;64.22;39.75;;;16.40;99.90;;;;;;5002441;28;20061;-74
2023/05/09 09:27:55;;;;;;;71.85;39.28;;;16.40;99.90;;;;;;5002995;28;20050;-75
2023/05/09 09:30:24;;;;;;;67.75;38.70;;;16.50;99.90;;;;;;5004284;28;20042;-75
2023/05/09 09:32:49;;;;;;;63.50;36.10;;;16.50;99.90;;;;;;5000543;28;20056;-74
2023/05/09 09:35:16;;;;;;;61.50;36.53;;;16.50;99.90;;;;;;5002166;28;20042;-76
2023/05/09 09:37:42;;;;;;;58.97;35.90;;;16.60;99.90;;;;;;5002399;28;20058;-75
2023/05/09 09:40:10;;;;;;;57.20;35.35;;;16.60;99.90;;;;;;5005226;28;20436;-75
2023/05/09 09:42:47;;;;;;;61.85;35.42;;;16.60;99.90;;;;;;5003854;28;20057;-75
2023/05/09 09:45:17;;;;;;;56.83;33.67;;;16.60;99.90;;;;;;4987030;28;20601;-75
2023/05/09 09:47:45;;;;;;;57.28;33.88;;;16.60;99.90;;;;;;5002852;28;20058;-75
2023/05/09 09:50:12;;;;;;;52.72;32.85;;;16.60;99.90;;;;;;5003878;28;20045;-75
2023/05/09 09:52:49;;;;;;;58.22;34.13;;;16.60;99.90;;;;;;5003160;28;20038;-75
2023/05/09 09:55:15;;;;;;;55.78;32.72;;;16.70;99.90;;;;;;5005179;28;20477;-84
2023/05/09 09:57:44;;;;;;;49.42;32.83;;;16.70;99.90;;;;;;5003073;28;20054;-82
2023/05/09 10:00:11;;;;;;;55.08;34.25;;;16.80;99.90;;;;;;5003931;28;20050;-80
2023/05/09 10:02:50;;;;;;;53.97;33.30;;;16.80;99.90;;;;;;5001608;28;20073;-81
2023/05/09 10:05:28;;;;;;;51.33;32.42;;;16.90;99.90;;;;;;5002930;28;20062;-80
2023/05/09 10:08:01;;;;;;;48.15;30.38;;;17.00;99.90;;;;;;5002736;28;20045;-78
2023/05/09 10:10:32;;;;;;;45.15;29.83;;;17.00;99.90;;;;;;5004242;28;20088;-79
2023/05/09 10:13:16;;;;;;;51.90;30.30;;;17.00;99.90;;;;;;5002552;28;20380;-79
2023/05/09 10:15:43;;;;;;;45.05;29.58;;;17.00;99.90;;;;;;5002995;28;20137;-79
2023/05/09 10:18:11;;;;;;;46.45;29.85;;;17.00;99.90;;;;;;5003159;28;20678;-80
2023/05/09 10:20:39;;;;;;;46.08;28.55;;;17.00;99.90;;;;;;4985967;28;20109;-79
2023/05/09 10:23:05;;;;;;;44.20;28.00;;;17.00;99.90;;;;;;4984965;28;20124;-80
2023/05/09 10:26:03;;;;;;;42.70;27.08;;;17.00;99.90;;;;;;4986256;28;20049;-80
2023/05/09 10:28:32;;;;;;;42.47;25.88;;;17.10;99.90;;;;;;5000715;28;20054;-79
2023/05/09 10:31:22;;;;;;;39.60;25.67;;;17.00;99.90;;;;;;5002053;28;20072;-79
2023/05/09 10:33:49;;;;;;;39.35;25.67;;;17.00;99.90;;;;;;5002593;28;20481;-78
2023/05/09 10:36:17;;;;;;;38.58;24.58;;;17.00;99.90;;;;;;5002956;28;20065;-82
2023/05/09 10:38:43;;;;;;;39.25;24.35;;;17.00;99.90;;;;;;5003972;28;20053;-79
2023/05/09 10:41:11;;;;;;;34.42;21.38;;;17.00;99.90;;;;;;4987052;28;20052;-80
2023/05/09 10:43:36;;;;;;;32.88;21.00;;;17.10;99.90;;;;;;4984255;28;20057;-79
2023/05/09 10:46:03;;;;;;;33.22;21.35;;;17.10;99.90;;;;;;4986151;28;20049;-79
2023/05/09 10:48:31;;;;;;;33.35;22.17;;;17.10;99.90;;;;;;5000242;28;20046;-78
2023/05/09 10:50:59;;;;;;;33.42;21.50;;;17.20;99.90;;;;;;4984584;28;20337;-79
2023/05/09 10:53:39;;;;;;;37.83;22.52;;;17.20;99.90;;;;;;5002391;28;20487;-79
2023/05/09 10:56:05;;;;;;;29.60;19.80;;;17.20;99.90;;;;;;5002420;28;20109;-79
2023/05/09 10:58:35;;;;;;;28.00;18.20;;;17.20;99.90;;;;;;4986243;28;20042;-79
2023/05/09 11:01:02;;;;;;;27.05;18.10;;;17.30;99.90;;;;;;5001497;28;20049;-79
2023/05/09 11:03:48;;;;;;;25.42;16.05;;;17.30;99.90;;;;;;5000149;28;20574;-80
2023/05/09 11:06:39;;;;;;;24.30;16.35;;;17.30;99.90;;;;;;5000517;28;20418;-80
2023/05/09 11:09:31;;;;;;;27.20;16.05;;;17.30;99.90;;;;;;4986348;28;20585;-79
2023/05/09 11:12:03;;;;;;;26.23;17.40;;;17.30;99.90;;;;;;4999623;28;20755;-81
2023/05/09 11:14:39;;;;;;;23.05;15.45;;;17.30;99.90;;;;;;5002615;28;20053;-81
2023/05/09 11:17:11;;;;;;;28.20;16.95;;;17.30;99.90;;;;;;4985691;28;20049;-80
2023/05/09 11:19:46;;;;;;;21.23;14.23;;;17.30;99.90;;;;;;5002592;28;20507;-80
2023/05/09 11:22:13;;;;;;;23.48;16.08;;;17.30;99.90;;;;;;5002844;28;20045;-80
2023/05/09 11:24:43;;;;;;;25.92;16.23;;;17.30;99.90;;;;;;5000846;28;20126;-80
2023/05/09 11:27:19;;;;;;;27.42;15.95;;;17.30;99.90;;;;;;5002221;28;20046;-80
2023/05/09 11:29:55;;;;;;;24.08;14.98;;;17.30;99.90;;;;;;5002306;28;20042;-81
2023/05/09 11:32:27;;;;;;;24.73;15.25;;;17.40;99.90;;;;;;5002851;28;20046;-81
2023/05/09 11:35:17;;;;;;;20.38;14.77;;;17.40;99.90;;;;;;4985050;28;20042;-81
2023/05/09 11:37:48;;;;;;;25.30;14.98;;;17.40;99.90;;;;;;5000364;28;20047;-81
2023/05/09 11:40:16;;;;;;;;;;;17.40;99.90;;;;;;5004426;28;20124;-80
2023/05/09 11:42:52;;;;;;;23.20;14.45;;;17.40;99.90;;;;;;5000446;28;20592;-81
2023/05/09 11:45:19;;;;;;;23.48;14.10;;;17.40;99.90;;;;;;5001351;28;20529;-81
2023/05/09 11:47:49;;;;;;;25.15;14.60;;;17.40;99.90;;;;;;5000570;28;20132;-81
2023/05/09 11:50:18;;;;;;;22.10;13.50;;;17.40;99.90;;;;;;5002955;28;20050;-81
2023/05/09 11:52:44;;;;;;;21.45;13.27;;;17.50;99.90;;;;;;5001133;28;20042;-82
2023/05/09 11:55:13;;;;;;;21.85;13.35;;;17.50;99.90;;;;;;5002531;28;20138;-81
2023/05/09 11:57:41;;;;;;;20.02;13.70;;;17.60;99.90;;;;;;4996978;28;20056;-82
2023/05/09 12:00:09;;;;;;;19.05;13.90;;;17.60;99.90;;;;;;4999910;28;20061;-81
2023/05/09 12:02:35;;;;;;;20.58;12.75;;;17.60;99.90;;;;;;5001922;28;20549;-82
2023/05/09 12:05:13;;;;;;;20.30;13.82;;;17.60;99.90;;;;;;5003516;28;20482;-81
2023/05/09 12:07:39;;;;;;;19.42;13.38;;;17.60;99.90;;;;;;4999830;28;20049;-81
2023/05/09 12:10:07;;;;;;;23.35;14.52;;;17.60;99.90;;;;;;5020168;28;20845;-81
2023/05/09 12:12:45;;;;;;;17.75;12.85;;;17.60;99.90;;;;;;4983692;28;20141;-81
2023/05/09 12:15:12;;;;;;;20.08;14.15;;;17.60;99.90;;;;;;4984966;28;20057;-81
2023/05/09 12:17:38;;;;;;;18.75;13.07;;;17.60;99.90;;;;;;5001197;28;20107;-80
2023/05/09 12:20:04;;;;;;;20.08;13.52;;;17.70;99.90;;;;;;5000664;28;20046;-81
2023/05/09 12:22:31;;;;;;;18.63;12.32;;;17.70;99.90;;;;;;5000832;28;20614;-80
2023/05/09 12:25:01;;;;;;;19.52;13.63;;;17.70;99.90;;;;;;5003112;28;20050;-81
2023/05/09 12:27:28;;;;;;;19.52;13.95;;;17.80;99.90;;;;;;5002566;28;20140;-81
2023/05/09 12:29:54;;;;;;;18.98;14.20;;;17.80;99.90;;;;;;5001697;28;20053;-81
2023/05/09 12:32:20;;;;;;;21.73;14.30;;;17.80;99.90;;;;;;5002036;28;20038;-81